Time;durP1;ratioP1;P1;durP2;ratioP2;P2;SDS_P1;SDS_P2;PMS_P1;PMS_P2;Temp;Humidity;BMP_temperature;BMP_pressure;BME280_temperature;BME280_humidity;BME280_pressure;Samples;Min_cycle;Max_cycle;Signal;HPM_P1;HPM_P2
2023/02/12 00:01:47;;;;;;;;;;;;;;;28.18;14.85;101738.69;5065232;28;1037;-32
2023/02/12 00:04:12;;;;;;;;;;;;;;;28.23;15.27;101730.06;5077675;28;916;-30
2023/02/12 00:06:38;;;;;;;;;;;;;;;28.17;15.14;101730.75;5078494;28;1159;-33
2023/02/12 00:09:03;;;;;;;;;;;;;;;27.95;15.21;101727.66;5078452;28;1107;-33
2023/02/12 00:11:28;;;;;;;;;;;;;;;27.73;15.86;101729.94;5077065;28;1955;-31
2023/02/12 00:13:54;;;;;;;;;;;;;;;28.18;15.19;101727.88;5078353;28;1180;-30
2023/02/12 00:16:20;;;;;;;;;;;;;;;28.41;15.27;101721.84;5078253;28;1142;-32
2023/02/12 00:18:45;;;;;;;;;;;;;;;28.48;15.23;101722.00;5077980;28;1146;-29
2023/02/12 00:21:11;;;;;;;;;;;;;;;27.92;15.13;101722.56;5077759;28;1119;-33
2023/02/12 00:23:37;;;;;;;;;;;;;;;27.41;15.45;101726.91;5078220;28;1155;-31
2023/02/12 00:26:09;;;;;;;;;;;;;;;27.61;15.97;101732.91;5077748;28;1052;-31
2023/02/12 00:28:34;;;;;;;;;;;;;;;27.83;15.90;101721.69;5077438;28;878;-30
2023/02/12 00:31:12;;;;;;;;;;;;;;;28.07;15.74;101725.50;5077724;28;1186;-30
2023/02/12 00:33:38;;;;;;;;;;;;;;;28.24;15.66;101727.19;5077611;28;1906;-32
2023/02/12 00:36:03;;;;;;;;;;;;;;;28.26;15.48;101727.03;5077893;28;1206;-31
2023/02/12 00:38:28;;;;;;;;;;;;;;;28.35;15.56;101725.22;5077591;28;1147;-34
2023/02/12 00:40:54;;;;;;;;;;;;;;;28.29;15.34;101724.00;5063851;28;1236;-32
2023/02/12 00:43:19;;;;;;;;;;;;;;;28.17;15.50;101717.22;5077739;28;1146;-32
2023/02/12 00:45:45;;;;;;;;;;;;;;;27.99;15.94;101710.91;5077304;28;1103;-35
2023/02/12 00:48:10;;;;;;;;;;;;;;;28.28;15.75;101716.91;5077430;28;1142;-32
2023/02/12 00:50:35;;;;;;;;;;;;;;;28.51;15.32;101713.53;5077085;28;1262;-29
2023/02/12 00:53:01;;;;;;;;;;;;;;;28.31;14.78;101703.03;5076446;28;1976;-31
2023/02/12 00:55:26;;;;;;;;;;;;;;;27.77;15.44;101703.44;5077354;28;1007;-32
2023/02/12 00:57:51;;;;;;;;;;;;;;;27.60;16.18;101704.22;5077512;28;1151;-33
2023/02/12 01:00:17;;;;;;;;;;;;;;;27.86;16.02;101697.06;5077285;28;1075;-33
2023/02/12 01:02:42;;;;;;;;;;;;;;;27.99;15.82;101697.41;5076433;28;1123;-29
2023/02/12 01:05:07;;;;;;;;;;;;;;;28.15;16.01;101686.78;5076776;28;881;-29
2023/02/12 01:07:32;;;;;;;;;;;;;;;28.01;15.68;101686.41;5077506;28;1059;-30
2023/02/12 01:09:58;;;;;;;;;;;;;;;28.15;15.74;101684.06;5076874;28;1183;-28
2023/02/12 01:12:23;;;;;;;;;;;;;;;28.29;15.81;101680.72;5076245;28;1909;-31
2023/02/12 01:14:48;;;;;;;;;;;;;;;28.14;15.25;101683.25;5076396;28;1051;-29
2023/02/12 01:17:13;;;;;;;;;;;;;;;27.68;15.63;101686.31;5076292;28;1021;-31
2023/02/12 01:19:39;;;;;;;;;;;;;;;28.18;15.80;101681.03;5077013;28;1203;-30
2023/02/12 01:22:04;;;;;;;;;;;;;;;28.21;15.16;101692.38;5077066;28;1171;-31
2023/02/12 01:24:30;;;;;;;;;;;;;;;28.30;15.32;101679.69;5076788;28;1222;-28
2023/02/12 01:26:55;;;;;;;;;;;;;;;27.94;16.18;101683.56;5076948;28;1238;-31
2023/02/12 01:29:20;;;;;;;;;;;;;;;28.04;16.07;101678.00;5076721;28;865;-32
2023/02/12 01:31:45;;;;;;;;;;;;;;;28.22;15.94;101685.09;5076437;28;1901;-35
2023/02/12 01:34:11;;;;;;;;;;;;;;;28.48;15.49;101684.97;5076533;28;1072;-32
2023/02/12 01:36:36;;;;;;;;;;;;;;;28.32;15.75;101676.81;5076868;28;1179;-30
2023/02/12 01:39:02;;;;;;;;;;;;;;;28.30;15.87;101668.03;5076468;28;1031;-30
2023/02/12 01:41:29;;;;;;;;;;;;;;;28.17;15.62;101673.94;5076121;28;883;-30
2023/02/12 01:44:13;;;;;;;;;;;;;;;28.02;16.07;101671.91;5075994;28;1130;-33
2023/02/12 01:46:38;;;;;;;;;;;;;;;28.03;15.75;101672.75;5076194;28;1094;-37
2023/02/12 01:49:04;;;;;;;;;;;;;;;28.29;15.89;101672.59;5073659;28;1143;-35
2023/02/12 01:51:29;;;;;;;;;;;;;;;28.33;15.76;101679.38;5048124;28;2054;-29
2023/02/12 01:53:54;;;;;;;;;;;;;;;28.39;15.76;101669.75;5075948;28;856;-29
2023/02/12 01:56:20;;;;;;;;;;;;;;;28.40;15.96;101670.59;5076561;28;1044;-32
2023/02/12 01:58:45;;;;;;;;;;;;;;;28.41;16.08;101664.19;5075937;28;1095;-31
2023/02/12 02:01:20;;;;;;;;;;;;;;;28.31;15.81;101664.31;5058422;28;1191;-36
2023/02/12 02:03:46;;;;;;;;;;;;;;;27.92;16.21;101674.75;5057571;28;1083;-33
2023/02/12 02:06:12;;;;;;;;;;;;;;;28.07;16.39;101664.13;5058938;28;1167;-33
2023/02/12 02:08:38;;;;;;;;;;;;;;;28.18;15.87;101664.78;5058230;28;1053;-31
2023/02/12 02:14:31;;;;;;;;;;;;;;;28.33;15.87;101668.56;5076175;28;1075;-32
2023/02/12 02:16:33;;;;;;;;;;;;;;;28.32;15.88;101663.28;5056145;28;1108;-31
2023/02/12 02:19:00;;;;;;;;;;;;;;;28.42;15.57;101669.41;5058609;28;1032;-30
2023/02/12 02:21:45;;;;;;;;;;;;;;;28.04;16.11;101656.34;5057783;28;1064;-31
2023/02/12 02:24:29;;;;;;;;;;;;;;;27.93;15.82;101653.94;5046474;28;1135;-29
2023/02/12 02:27:01;;;;;;;;;;;;;;;28.22;15.93;101658.91;5067903;28;1102;-32
2023/02/12 02:29:32;;;;;;;;;;;;;;;28.22;15.72;101656.19;5066305;28;1091;-29
2023/02/12 02:32:27;;;;;;;;;;;;;;;28.36;15.74;101660.09;5079902;28;1894;-32
2023/02/12 02:34:58;;;;;;;;;;;;;;;28.40;15.79;101668.75;5062213;28;1704;-29
2023/02/12 02:37:26;;;;;;;;;;;;;;;28.38;15.57;101665.34;5079515;28;1098;-31
2023/02/12 02:39:53;;;;;;;;;;;;;;;28.21;15.78;101661.78;5080147;28;1134;-31
2023/02/12 02:42:31;;;;;;;;;;;;;;;27.95;16.17;101670.88;5074793;28;1167;-30
2023/02/12 02:44:56;;;;;;;;;;;;;;;28.19;15.99;101672.78;5079170;28;1161;-34
2023/02/12 02:47:23;;;;;;;;;;;;;;;28.29;15.82;101669.03;5077232;28;1110;-32
2023/02/12 02:49:50;;;;;;;;;;;;;;;28.36;15.83;101673.63;5051691;28;1127;-32
2023/02/12 02:52:25;;;;;;;;;;;;;;;28.33;15.79;101668.56;5079046;28;1901;-30
2023/02/12 02:54:54;;;;;;;;;;;;;;;28.31;15.92;101664.31;5079471;28;1023;-32
2023/02/12 02:57:22;;;;;;;;;;;;;;;28.28;15.25;101662.78;5078941;28;1024;-33
2023/02/12 02:59:55;;;;;;;;;;;;;;;27.84;16.39;101661.22;5079638;28;1144;-33
2023/02/12 03:02:20;;;;;;;;;;;;;;;27.92;16.23;101665.78;5061786;28;1143;-29
2023/02/12 03:04:48;;;;;;;;;;;;;;;28.18;16.22;101659.38;5061674;28;1146;-32
2023/02/12 03:07:15;;;;;;;;;;;;;;;28.27;15.95;101668.38;5079477;28;1082;-32
2023/02/12 03:09:43;;;;;;;;;;;;;;;28.43;15.86;101668.41;5061404;28;1155;-35
2023/02/12 03:12:14;;;;;;;;;;;;;;;28.44;15.85;101670.09;5061624;28;1898;-33
2023/02/12 03:14:41;;;;;;;;;;;;;;;28.40;15.76;101667.88;5079050;28;1210;-32
2023/02/12 03:17:14;;;;;;;;;;;;;;;28.29;15.99;101675.31;5053318;28;931;-33
2023/02/12 03:19:46;;;;;;;;;;;;;;;27.82;15.85;101676.75;5056729;28;989;-30
2023/02/12 03:22:13;;;;;;;;;;;;;;;28.16;15.86;101681.19;5079092;28;1130;-30
2023/02/12 03:24:58;;;;;;;;;;;;;;;28.26;15.98;101683.75;5061105;28;1043;-31
2023/02/12 03:27:46;;;;;;;;;;;;;;;28.28;15.96;101686.31;5061118;28;1124;-33
2023/02/12 03:30:12;;;;;;;;;;;;;;;28.41;15.78;101672.28;5059182;28;1175;-35
2023/02/12 03:32:40;;;;;;;;;;;;;;;28.37;16.00;101679.91;5061185;28;1957;-31
2023/02/12 03:35:08;;;;;;;;;;;;;;;28.21;15.67;101668.00;5079055;28;1051;-34
2023/02/12 03:37:38;;;;;;;;;;;;;;;28.03;16.22;101667.34;5064264;28;1237;-33
2023/02/12 03:40:03;;;;;;;;;;;;;;;28.06;15.90;101672.41;5061160;28;1068;-32
2023/02/12 03:42:46;;;;;;;;;;;;;;;28.32;16.11;101676.81;5078604;28;954;-31
2023/02/12 03:45:34;;;;;;;;;;;;;;;28.39;15.52;101680.59;5060979;28;1068;-33
2023/02/12 03:48:03;;;;;;;;;;;;;;;27.71;16.11;101676.03;5048550;28;1137;-30
2023/02/12 03:50:28;;;;;;;;;;;;;;;27.29;16.00;101683.13;5078541;28;1163;-29
2023/02/12 03:52:53;;;;;;;;;;;;;;;27.53;16.64;101680.72;5078163;28;1917;-31
2023/02/12 03:55:18;;;;;;;;;;;;;;;27.65;16.75;101679.38;5078432;28;1210;-33
2023/02/12 03:57:45;;;;;;;;;;;;;;;27.80;16.29;101679.63;5078726;28;1045;-34
2023/02/12 04:00:12;;;;;;;;;;;;;;;28.16;16.52;101675.78;5060316;28;1140;-33
2023/02/12 04:02:37;;;;;;;;;;;;;;;27.52;15.87;101660.94;5060715;28;1055;-29
2023/02/12 04:05:03;;;;;;;;;;;;;;;27.21;15.15;101667.72;5059951;28;1144;-32
2023/02/12 04:07:29;;;;;;;;;;;;;;;27.03;14.68;101665.09;5078449;28;1162;-29
2023/02/12 04:09:54;;;;;;;;;;;;;;;27.06;13.81;101663.94;5060164;28;1147;-30
2023/02/12 04:12:22;;;;;;;;;;;;;;;27.02;13.92;101666.97;5078696;28;1909;-31
2023/02/12 04:14:51;;;;;;;;;;;;;;;27.01;13.58;101662.56;5077809;28;1127;-30
2023/02/12 04:17:16;;;;;;;;;;;;;;;26.40;13.33;101671.41;5078000;28;1027;-28
2023/02/12 04:19:47;;;;;;;;;;;;;;;26.09;12.45;101676.31;5077630;28;1027;-30
2023/02/12 04:22:13;;;;;;;;;;;;;;;25.77;12.09;101665.88;5077527;28;1056;-30
2023/02/12 04:24:56;;;;;;;;;;;;;;;26.72;11.59;101661.00;5077855;28;1056;-29
2023/02/12 04:27:22;;;;;;;;;;;;;;;26.99;12.34;101669.09;5077861;28;1106;-31
2023/02/12 04:29:52;;;;;;;;;;;;;;;27.15;12.87;101671.06;5077604;28;1159;-33
2023/02/12 04:32:19;;;;;;;;;;;;;;;27.16;12.52;101672.75;5059845;28;1910;-29
2023/02/12 04:34:50;;;;;;;;;;;;;;;27.22;12.77;101672.13;5059173;28;1048;-32
2023/02/12 04:37:38;;;;;;;;;;;;;;;27.22;12.99;101684.78;5059671;28;1079;-29
2023/02/12 04:40:05;;;;;;;;;;;;;;;27.16;13.28;101685.44;5066604;28;1412;-30
2023/02/12 04:42:30;;;;;;;;;;;;;;;27.14;13.47;101682.91;5059208;28;1107;-28
2023/02/12 04:44:55;;;;;;;;;;;;;;;27.23;13.43;101694.56;5077176;28;1072;-30
2023/02/12 04:47:21;;;;;;;;;;;;;;;27.22;13.24;101699.16;5077602;28;1119;-30
2023/02/12 04:49:46;;;;;;;;;;;;;;;27.31;13.42;101696.47;5077008;28;1059;-31
2023/02/12 04:52:11;;;;;;;;;;;;;;;27.33;13.44;101697.16;5077108;28;1905;-29
2023/02/12 04:54:36;;;;;;;;;;;;;;;26.91;13.51;101699.59;5077360;28;974;-30
2023/02/12 04:57:02;;;;;;;;;;;;;;;27.25;13.72;101709.63;5077081;28;1174;-28
2023/02/12 04:59:27;;;;;;;;;;;;;;;27.42;13.77;101707.00;5076992;28;1052;-32
2023/02/12 05:01:52;;;;;;;;;;;;;;;27.41;14.04;101708.00;5077115;28;1134;-27
2023/02/12 05:04:18;;;;;;;;;;;;;;;27.53;14.06;101723.94;5077647;28;1186;-29
2023/02/12 05:06:43;;;;;;;;;;;;;;;27.54;13.62;101723.78;5076400;28;1150;-32
2023/02/12 05:09:09;;;;;;;;;;;;;;;28.08;13.06;101716.34;5077726;28;1039;-29
2023/02/12 05:11:34;;;;;;;;;;;;;;;28.43;13.04;101721.66;5058821;28;1910;-28
2023/02/12 05:14:00;;;;;;;;;;;;;;;28.61;12.90;101721.53;5077008;28;1067;-27
2023/02/12 05:16:25;;;;;;;;;;;;;;;28.70;12.47;101728.63;5077241;28;1004;-30
2023/02/12 05:18:50;;;;;;;;;;;;;;;28.89;12.15;101737.41;5076801;28;859;-32
2023/02/12 05:21:16;;;;;;;;;;;;;;;29.00;12.16;101736.22;5076117;28;1067;-32
2023/02/12 05:23:41;;;;;;;;;;;;;;;28.14;12.08;101734.66;5076942;28;1055;-30
2023/02/12 05:26:11;;;;;;;;;;;;;;;26.25;11.88;101729.53;5076884;28;1083;-26
2023/02/12 05:28:36;;;;;;;;;;;;;;;26.79;13.52;101734.13;5076233;28;980;-37
2023/02/12 05:31:02;;;;;;;;;;;;;;;27.72;12.88;101731.81;5076112;28;892;-33
2023/02/12 05:33:27;;;;;;;;;;;;;;;27.72;13.00;101737.22;5076641;28;1955;-29
2023/02/12 05:35:52;;;;;;;;;;;;;;;27.42;12.89;101736.72;5076408;28;1099;-35
2023/02/12 05:38:18;;;;;;;;;;;;;;;25.73;15.22;101741.78;5076302;28;1159;-31
2023/02/12 05:40:43;;;;;;;;;;;;;;;26.13;14.71;101739.69;5076408;28;1042;-31
2023/02/12 05:43:08;;;;;;;;;;;;;;;26.86;14.18;101734.34;5076192;28;898;-29
2023/02/12 05:45:33;;;;;;;;;;;;;;;27.49;13.71;101750.44;5076264;28;1206;-31
2023/02/12 05:47:59;;;;;;;;;;;;;;;27.59;13.86;101756.53;5076080;28;1151;-28
2023/02/12 05:50:24;;;;;;;;;;;;;;;27.91;13.92;101761.47;5076137;28;1114;-34
2023/02/12 05:52:49;;;;;;;;;;;;;;;28.29;13.45;101766.44;5076246;28;1917;-31
2023/02/12 05:55:15;;;;;;;;;;;;;;;27.88;13.99;101765.31;5075887;28;921;-29
2023/02/12 05:57:40;;;;;;;;;;;;;;;26.73;15.28;101770.66;5076035;28;1127;-31
2023/02/12 06:00:06;;;;;;;;;;;;;;;27.57;14.96;101782.06;5074919;28;867;-28
2023/02/12 06:02:32;;;;;;;;;;;;;;;27.90;14.60;101792.19;5076019;28;1035;-31
2023/02/12 06:04:57;;;;;;;;;;;;;;;27.94;14.57;101783.63;5076268;28;1151;-29
2023/02/12 06:07:23;;;;;;;;;;;;;;;27.93;14.69;101783.75;5075920;28;917;-31
2023/02/12 06:09:48;;;;;;;;;;;;;;;28.21;14.68;101783.53;5075844;28;1071;-29
2023/02/12 06:12:13;;;;;;;;;;;;;;;28.34;14.63;101793.88;5075619;28;1894;-30
2023/02/12 06:14:39;;;;;;;;;;;;;;;28.54;14.50;101799.00;5076109;28;1191;-31
2023/02/12 06:17:04;;;;;;;;;;;;;;;28.68;14.26;101794.75;5076068;28;1151;-31
2023/02/12 06:19:30;;;;;;;;;;;;;;;28.80;14.35;101792.56;5075685;28;898;-31
2023/02/12 06:21:55;;;;;;;;;;;;;;;28.76;14.32;101791.22;5076234;28;1031;-32
2023/02/12 06:24:20;;;;;;;;;;;;;;;27.97;15.12;101777.03;5075733;28;1048;-32
2023/02/12 06:26:47;;;;;;;;;;;;;;;27.95;15.20;101782.59;5076108;28;1170;-31
2023/02/12 06:29:13;;;;;;;;;;;;;;;27.84;15.54;101796.41;5076206;28;1139;-31
2023/02/12 06:31:38;;;;;;;;;;;;;;;28.27;15.25;101807.19;5075354;28;1961;-30
2023/02/12 06:34:04;;;;;;;;;;;;;;;28.68;15.02;101809.16;5075617;28;1121;-31
2023/02/12 06:36:30;;;;;;;;;;;;;;;28.53;15.08;101808.97;5075969;28;1044;-33
2023/02/12 06:38:55;;;;;;;;;;;;;;;28.68;14.96;101813.72;5075926;28;1068;-29
2023/02/12 06:41:20;;;;;;;;;;;;;;;28.36;15.37;101821.63;5075938;28;1170;-31
2023/02/12 06:43:46;;;;;;;;;;;;;;;28.29;15.59;101820.56;5074916;28;860;-30
2023/02/12 06:46:11;;;;;;;;;;;;;;;28.06;15.74;101821.19;5075928;28;1103;-30
2023/02/12 06:48:36;;;;;;;;;;;;;;;28.51;15.40;101821.00;5076202;28;1138;-31
2023/02/12 06:51:06;;;;;;;;;;;;;;;28.66;15.31;101818.47;5075483;28;1163;-33
2023/02/12 06:53:31;;;;;;;;;;;;;;;28.65;15.55;101814.91;5075661;28;2032;-28
2023/02/12 06:55:58;;;;;;;;;;;;;;;28.76;15.34;101808.31;5064621;28;1028;-31
2023/02/12 06:58:24;;;;;;;;;;;;;;;28.82;15.34;101817.63;5075619;28;1052;-32
2023/02/12 07:00:49;;;;;;;;;;;;;;;28.73;15.19;101814.06;5075996;28;1154;-34
2023/02/12 07:03:14;;;;;;;;;;;;;;;28.47;15.75;101810.50;5075527;28;1036;-30
2023/02/12 07:05:40;;;;;;;;;;;;;;;28.41;15.84;101813.03;5061978;28;936;-33
2023/02/12 07:08:05;;;;;;;;;;;;;;;28.72;15.93;101810.53;5075448;28;829;-29
2023/02/12 07:10:30;;;;;;;;;;;;;;;28.17;15.96;101809.19;5076017;28;1159;-30
2023/02/12 07:12:56;;;;;;;;;;;;;;;27.86;15.94;101811.44;5078643;28;1897;-31
2023/02/12 07:15:21;;;;;;;;;;;;;;;28.26;15.61;101816.31;5078307;28;1102;-34
2023/02/12 07:17:46;;;;;;;;;;;;;;;28.81;15.29;101816.78;5079618;28;1123;-31
2023/02/12 07:20:12;;;;;;;;;;;;;;;28.47;15.92;101818.63;5078490;28;1135;-29
2023/02/12 07:22:37;;;;;;;;;;;;;;;27.99;16.33;101811.00;5079329;28;1100;-28
2023/02/12 07:25:02;;;;;;;;;;;;;;;28.53;15.88;101821.66;5078948;28;1222;-33
2023/02/12 07:27:28;;;;;;;;;;;;;;;28.62;15.93;101825.22;5079270;28;1127;-31
2023/02/12 07:29:53;;;;;;;;;;;;;;;28.75;15.75;101835.53;5079125;28;1209;-30
2023/02/12 07:32:18;;;;;;;;;;;;;;;28.84;15.61;101837.25;5078567;28;1893;-31
2023/02/12 07:34:44;;;;;;;;;;;;;;;28.94;15.72;101840.66;5072654;28;1115;-31
2023/02/12 07:37:09;;;;;;;;;;;;;;;28.88;15.38;101838.59;5071775;28;1059;-29
2023/02/12 07:39:34;;;;;;;;;;;;;;;28.93;15.72;101838.09;5078884;28;1206;-29
2023/02/12 07:41:59;;;;;;;;;;;;;;;28.41;16.26;101843.63;5078392;28;1071;-32
2023/02/12 07:44:25;;;;;;;;;;;;;;;28.75;15.86;101846.38;5065808;28;1114;-31
2023/02/12 07:46:50;;;;;;;;;;;;;;;28.88;15.91;101854.03;5078610;28;1305;-29
2023/02/12 07:49:16;;;;;;;;;;;;;;;28.98;16.01;101843.88;5078023;28;1028;-34
2023/02/12 07:51:41;;;;;;;;;;;;;;;29.06;16.04;101852.00;5078378;28;1905;-28
2023/02/12 07:54:07;;;;;;;;;;;;;;;29.23;15.85;101857.41;5078642;28;1356;-30
2023/02/12 07:56:34;;;;;;;;;;;;;;;29.00;16.02;101849.13;5077924;28;1559;-29
2023/02/12 07:59:00;;;;;;;;;;;;;;;28.14;16.88;101845.56;5078103;28;1103;-28
2023/02/12 08:01:26;;;;;;;;;;;;;;;28.80;16.40;101854.84;5078661;28;1159;-32
2023/02/12 08:03:52;;;;;;;;;;;;;;;27.00;14.81;101849.88;5077822;28;1115;-29
2023/02/12 08:06:18;;;;;;;;;;;;;;;27.72;15.62;101850.78;5078372;28;1083;-31
2023/02/12 08:08:44;;;;;;;;;;;;;;;28.43;15.21;101862.38;5072910;28;888;-32
2023/02/12 08:11:09;;;;;;;;;;;;;;;28.81;14.81;101861.97;5070409;28;1155;-31
2023/02/12 08:13:35;;;;;;;;;;;;;;;29.05;14.96;101866.59;5077972;28;1903;-31
2023/02/12 08:16:04;;;;;;;;;;;;;;;28.60;15.32;101874.13;5078072;28;1131;-29
2023/02/12 08:18:30;;;;;;;;;;;;;;;28.29;15.67;101875.53;5077553;28;1158;-27
2023/02/12 08:20:59;;;;;;;;;;;;;;;28.72;15.45;101880.06;5078449;28;1087;-27
2023/02/12 08:23:25;;;;;;;;;;;;;;;29.04;14.94;101872.19;5077423;28;1091;-27
2023/02/12 08:25:50;;;;;;;;;;;;;;;29.23;14.77;101876.38;5077895;28;1176;-33
2023/02/12 08:28:15;;;;;;;;;;;;;;;29.30;14.84;101866.56;5078029;28;1036;-30
2023/02/12 08:30:41;;;;;;;;;;;;;;;28.56;15.26;101876.28;5077736;28;1171;-29
2023/02/12 08:33:06;;;;;;;;;;;;;;;28.02;16.13;101876.59;5077509;28;1951;-30
2023/02/12 08:35:31;;;;;;;;;;;;;;;28.60;15.86;101882.25;5078126;28;1245;-32
2023/02/12 08:37:56;;;;;;;;;;;;;;;29.04;15.29;101883.00;5077477;28;1103;-31
2023/02/12 08:40:22;;;;;;;;;;;;;;;29.19;14.95;101885.91;5077366;28;1043;-32
2023/02/12 08:42:47;;;;;;;;;;;;;;;29.14;15.05;101878.28;5077426;28;1115;-29
2023/02/12 08:45:12;;;;;;;;;;;;;;;29.19;15.26;101878.63;5077725;28;1163;-29
2023/02/12 08:47:37;;;;;;;;;;;;;;;29.32;15.23;101880.81;5077048;28;1067;-30
2023/02/12 08:50:03;;;;;;;;;;;;;;;28.99;15.29;101874.53;5077721;28;1297;-27
2023/02/12 08:52:28;;;;;;;;;;;;;;;28.38;15.81;101881.84;5077705;28;1906;-29
2023/02/12 08:54:54;;;;;;;;;;;;;;;28.84;15.74;101888.72;5076929;28;1116;-29
2023/02/12 08:57:19;;;;;;;;;;;;;;;29.10;15.53;101887.75;5077105;28;1079;-30
2023/02/12 08:59:44;;;;;;;;;;;;;;;29.27;15.16;101885.88;5077688;28;1146;-29
2023/02/12 09:02:09;;;;;;;;;;;;;;;29.27;15.39;101888.59;5077045;28;1262;-29
2023/02/12 09:04:35;;;;;;;;;;;;;;;28.46;15.83;101895.38;5059275;28;1088;-30
2023/02/12 09:07:00;;;;;;;;;;;;;;;28.27;16.53;101890.22;5076810;28;1036;-31
2023/02/12 09:09:25;;;;;;;;;;;;;;;28.76;16.10;101896.84;5077201;28;1174;-30
2023/02/12 09:11:51;;;;;;;;;;;;;;;28.96;15.79;101897.38;5077064;28;1957;-32
2023/02/12 09:14:16;;;;;;;;;;;;;;;29.02;15.57;101895.88;5077123;28;1140;-30
2023/02/12 09:16:41;;;;;;;;;;;;;;;29.27;15.61;101904.00;5076635;28;1043;-29
2023/02/12 09:19:07;;;;;;;;;;;;;;;28.86;15.78;101908.38;5076201;28;1126;-29
2023/02/12 09:21:32;;;;;;;;;;;;;;;28.46;15.98;101906.22;5076290;28;1071;-31
2023/02/12 09:23:58;;;;;;;;;;;;;;;28.73;16.01;101906.97;5076771;28;1060;-29
2023/02/12 09:26:26;;;;;;;;;;;;;;;29.00;15.87;101906.00;5077013;28;1023;-30
2023/02/12 09:28:52;;;;;;;;;;;;;;;29.18;15.88;101906.72;5076599;28;1054;-30
2023/02/12 09:31:19;;;;;;;;;;;;;;;29.38;15.76;101909.06;5075995;28;1063;-30
2023/02/12 09:33:44;;;;;;;;;;;;;;;28.26;16.30;101919.13;5075860;28;1905;-30
2023/02/12 09:36:11;;;;;;;;;;;;;;;28.07;16.58;101917.53;5076757;28;1078;-27
2023/02/12 09:38:36;;;;;;;;;;;;;;;28.55;16.42;101917.94;5076967;28;1240;-27
2023/02/12 09:41:20;;;;;;;;;;;;;;;28.61;16.16;101913.72;5076435;28;1039;-30
2023/02/12 09:44:01;;;;;;;;;;;;;;;28.29;16.40;101924.25;5074717;28;1150;-31
2023/02/12 09:46:30;;;;;;;;;;;;;;;28.32;16.34;101913.09;5065506;28;1061;-26
2023/02/12 09:49:08;;;;;;;;;;;;;;;28.75;16.05;101920.34;5074104;28;1141;-28
2023/02/12 09:51:33;;;;;;;;;;;;;;;28.75;15.76;101914.94;5067431;28;1030;-28
2023/02/12 09:54:04;;;;;;;;;;;;;;;28.76;16.03;101919.31;5060036;28;2035;-31
2023/02/12 09:56:29;;;;;;;;;;;;;;;28.85;15.86;101921.03;5075481;28;1025;-27
2023/02/12 09:58:58;;;;;;;;;;;;;;;28.87;16.01;101920.03;5057369;28;1202;-28
2023/02/12 10:01:24;;;;;;;;;;;;;;;28.92;15.95;101923.09;5076060;28;1153;-30
2023/02/12 10:03:49;;;;;;;;;;;;;;;29.04;15.85;101918.22;5074194;28;1028;-30
2023/02/12 10:06:25;;;;;;;;;;;;;;;29.07;15.92;101920.59;5057303;28;1024;-31
2023/02/12 10:09:06;;;;;;;;;;;;;;;29.03;15.96;101920.06;5075592;28;1123;-30
2023/02/12 10:11:38;;;;;;;;;;;;;;;29.09;15.69;101924.81;5057753;28;1168;-31
2023/02/12 10:14:22;;;;;;;;;;;;;;;29.18;15.73;101925.69;5075672;28;1989;-30
2023/02/12 10:16:47;;;;;;;;;;;;;;;29.17;15.63;101926.72;5076129;28;1143;-27
2023/02/12 10:19:13;;;;;;;;;;;;;;;29.23;15.55;101925.16;5076065;28;1043;-29
2023/02/12 10:21:56;;;;;;;;;;;;;;;29.20;15.68;101899.28;5063043;28;1075;-30
2023/02/12 10:24:27;;;;;;;;;;;;;;;29.46;15.59;101928.03;5075339;28;1093;-31
2023/02/12 10:26:53;;;;;;;;;;;;;;;29.49;15.45;101926.00;5056554;28;1091;-32
2023/02/12 10:29:26;;;;;;;;;;;;;;;29.37;15.54;101925.50;5057527;28;1151;-30
2023/02/12 10:31:52;;;;;;;;;;;;;;;29.28;15.65;101930.94;5057116;28;1902;-28
2023/02/12 10:34:17;;;;;;;;;;;;;;;29.38;15.58;101932.66;5057348;28;1035;-30
2023/02/12 10:36:54;;;;;;;;;;;;;;;29.45;15.69;101929.06;5075461;28;1257;-32
2023/02/12 10:39:26;;;;;;;;;;;;;;;29.56;15.82;101932.47;5058107;28;1020;-35
2023/02/12 10:41:54;;;;;;;;;;;;;;;29.54;15.75;101932.63;5057504;28;938;-28
2023/02/12 10:44:19;;;;;;;;;;;;;;;29.60;15.95;101928.41;5057075;28;1153;-28
2023/02/12 10:46:45;;;;;;;;;;;;;;;29.69;15.82;101924.69;5078256;28;1016;-31
2023/02/12 10:49:11;;;;;;;;;;;;;;;29.76;15.62;101937.53;5079616;28;1116;-28
2023/02/12 10:51:55;;;;;;;;;;;;;;;29.84;15.67;101936.66;5060673;28;1256;-34
2023/02/12 10:54:40;;;;;;;;;;;;;;;29.81;15.63;101937.88;5078099;28;1059;-30
2023/02/12 10:57:21;;;;;;;;;;;;;;;29.85;15.55;101939.22;5055865;28;1432;-30
2023/02/12 10:59:46;;;;;;;;;;;;;;;29.93;15.44;101936.47;5079222;28;1070;-28
2023/02/12 11:02:18;;;;;;;;;;;;;;;30.05;15.43;101949.66;5074187;28;1116;-30
2023/02/12 11:04:43;;;;;;;;;;;;;;;30.18;15.44;101952.69;5071512;28;1093;-30
2023/02/12 11:07:08;;;;;;;;;;;;;;;30.30;15.48;101960.47;5065670;28;1082;-27
2023/02/12 11:09:47;;;;;;;;;;;;;;;29.21;15.59;101948.91;5078363;28;892;-28
2023/02/12 11:12:33;;;;;;;;;;;;;;;28.82;15.03;101951.19;5065503;28;1890;-31
2023/02/12 11:14:59;;;;;;;;;;;;;;;28.74;14.71;101951.16;5064761;28;1870;-33
2023/02/12 11:17:35;;;;;;;;;;;;;;;28.78;14.37;101957.91;5078816;28;1011;-31
2023/02/12 11:20:02;;;;;;;;;;;;;;;28.75;13.86;101950.13;5060112;28;1024;-30
2023/02/12 11:22:28;;;;;;;;;;;;;;;28.75;13.56;101947.41;5078116;28;1086;-35
2023/02/12 11:25:00;;;;;;;;;;;;;;;28.77;13.59;101941.84;5078725;28;1100;-30
2023/02/12 11:27:27;;;;;;;;;;;;;;;29.50;13.10;101952.94;5078714;28;1079;-29
2023/02/12 11:30:12;;;;;;;;;;;;;;;29.78;13.09;101941.75;5060928;28;1118;-28
2023/02/12 11:32:37;;;;;;;;;;;;;;;29.93;13.24;101946.47;5077606;28;1977;-32
2023/02/12 11:35:25;;;;;;;;;;;;;;;30.04;13.36;101946.13;5078441;28;1024;-28
2023/02/12 11:37:53;;;;;;;;;;;;;;;30.17;13.37;101944.72;5078555;28;1079;-30
2023/02/12 11:40:19;;;;;;;;;;;;;;;30.35;13.30;101949.94;5078728;28;1032;-30
2023/02/12 11:42:46;;;;;;;;;;;;;;;29.85;14.14;101936.50;5077372;28;1024;-30
2023/02/12 11:45:18;;;;;;;;;;;;;;;29.08;14.85;101943.94;5078521;28;1056;-30
2023/02/12 11:47:45;;;;;;;;;;;;;;;29.61;14.31;101946.38;5078698;28;1051;-28
2023/02/12 11:50:23;;;;;;;;;;;;;;;30.04;14.14;101946.13;5060308;28;1247;-33
2023/02/12 11:52:49;;;;;;;;;;;;;;;30.15;14.34;101944.88;5064034;28;1965;-31
2023/02/12 11:55:25;;;;;;;;;;;;;;;30.22;14.28;101936.94;5059472;28;1075;-30
2023/02/12 11:57:51;;;;;;;;;;;;;;;30.27;14.31;101937.25;5059115;28;903;-30
2023/02/12 12:00:20;;;;;;;;;;;;;;;28.84;15.15;101951.00;5077884;28;1028;-28
2023/02/12 12:02:50;;;;;;;;;;;;;;;28.54;15.93;101947.88;5078086;28;1139;-30
2023/02/12 12:05:17;;;;;;;;;;;;;;;29.39;14.98;101951.44;5077516;28;1186;-32
2023/02/12 12:07:44;;;;;;;;;;;;;;;29.71;14.92;101948.91;5077681;28;1107;-31
2023/02/12 12:10:09;;;;;;;;;;;;;;;29.64;15.13;101959.59;5077891;28;1048;-33
2023/02/12 12:12:39;;;;;;;;;;;;;;;29.84;14.85;101970.06;5077856;28;1965;-30
2023/02/12 12:21:12;;;;;;;;;;;;;;;28.41;14.87;101969.97;5061805;28;1112;-31
2023/02/12 12:23:41;;;;;;;;;;;;;;;28.68;14.46;101962.63;5077210;28;1139;-29
2023/02/12 12:26:12;;;;;;;;;;;;;;;29.14;13.91;101966.81;5059695;28;1148;-30
2023/02/12 12:28:45;;;;;;;;;;;;;;;29.36;13.88;101962.63;5059558;28;1164;-29
2023/02/12 12:31:18;;;;;;;;;;;;;;;29.64;13.67;101970.44;5059369;28;1072;-27
2023/02/12 12:33:48;;;;;;;;;;;;;;;29.64;13.50;101981.28;5059115;28;2311;-35
2023/02/12 12:36:13;;;;;;;;;;;;;;;29.26;13.74;101970.91;5076624;28;1123;-30
2023/02/12 12:38:38;;;;;;;;;;;;;;;28.99;14.13;101974.75;5077122;28;1083;-30
2023/02/12 12:41:06;;;;;;;;;;;;;;;28.96;14.44;101963.22;5077263;28;1056;-28
2023/02/12 12:43:32;;;;;;;;;;;;;;;29.35;14.15;101979.88;5077194;28;1514;-31
2023/02/12 12:46:09;;;;;;;;;;;;;;;29.41;14.22;101973.78;5076324;28;912;-35
2023/02/12 12:48:53;;;;;;;;;;;;;;;29.53;13.99;101985.13;5059223;28;1529;-28
2023/02/12 12:51:56;;;;;;;;;;;;;;;29.50;14.27;101992.75;5065268;28;1091;-27
2023/02/12 12:54:27;;;;;;;;;;;;;;;29.05;14.28;101993.91;4995241;28;1175;-32
2023/02/12 12:56:58;;;;;;;;;;;;;;;27.80;15.73;101997.81;4994703;28;1089;-31
2023/02/12 12:59:39;;;;;;;;;;;;;;;28.14;15.51;101996.19;5038424;28;1063;-33
2023/02/12 13:02:05;;;;;;;;;;;;;;;28.81;15.23;102003.63;5076615;28;1091;-29